sensor_id;sensor_type;location;lat;lon;timestamp;noise_LAeq;noise_LA_min;noise_LA_max;noise_LA01;noise_LA95
60031;Laerm;45901;47.600;9.890;2022-11-18T00:01:27;41.37;39.81;44.97;;
60031;Laerm;45901;47.600;9.890;2022-11-18T00:03:54;41.40;39.81;42.76;;
60031;Laerm;45901;47.600;9.890;2022-11-18T00:06:24;41.42;40.13;42.88;;
60031;Laerm;45901;47.600;9.890;2022-11-18T00:08:54;41.26;39.70;42.53;;
60031;Laerm;45901;47.600;9.890;2022-11-18T00:11:24;41.24;39.34;42.76;;
60031;Laerm;45901;47.600;9.890;2022-11-18T00:14:12;41.24;39.81;42.65;;
60031;Laerm;45901;47.600;9.890;2022-11-18T00:16:48;41.25;39.34;43.14;;
60031;Laerm;45901;47.600;9.890;2022-11-18T00:19:16;41.13;39.81;42.65;;
60031;Laerm;45901;47.600;9.890;2022-11-18T00:21:44;41.11;39.58;42.41;;
60031;Laerm;45901;47.600;9.890;2022-11-18T00:24:12;41.10;39.70;42.53;;
60031;Laerm;45901;47.600;9.890;2022-11-18T00:26:40;41.15;39.34;42.59;;
60031;Laerm;45901;47.600;9.890;2022-11-18T00:29:08;41.32;39.81;43.72;;
60031;Laerm;45901;47.600;9.890;2022-11-18T00:31:36;41.34;39.70;44.11;;
60031;Laerm;45901;47.600;9.890;2022-11-18T00:34:04;41.80;40.03;45.91;;
60031;Laerm;45901;47.600;9.890;2022-11-18T00:36:32;41.92;40.13;47.12;;
60031;Laerm;45901;47.600;9.890;2022-11-18T00:39:00;41.92;40.43;44.97;;
60031;Laerm;45901;47.600;9.890;2022-11-18T00:41:29;42.02;40.33;46.89;;
60031;Laerm;45901;47.600;9.890;2022-11-18T00:44:10;41.83;40.13;46.02;;
60031;Laerm;45901;47.600;9.890;2022-11-18T00:46:37;41.52;39.81;44.90;;
60031;Laerm;45901;47.600;9.890;2022-11-18T00:49:05;41.20;39.58;43.58;;
60031;Laerm;45901;47.600;9.890;2022-11-18T00:51:32;41.12;39.68;42.53;;
60031;Laerm;45901;47.600;9.890;2022-11-18T00:54:00;41.08;39.70;42.47;;
60031;Laerm;45901;47.600;9.890;2022-11-18T00:56:29;41.14;39.70;42.53;;
60031;Laerm;45901;47.600;9.890;2022-11-18T00:58:56;41.18;39.58;42.41;;
60031;Laerm;45901;47.600;9.890;2022-11-18T01:01:24;41.25;39.58;44.76;;
60031;Laerm;45901;47.600;9.890;2022-11-18T01:03:52;41.19;39.81;42.53;;
60031;Laerm;45901;47.600;9.890;2022-11-18T01:06:19;41.25;39.58;42.53;;
60031;Laerm;45901;47.600;9.890;2022-11-18T01:08:47;41.25;39.70;42.59;;
60031;Laerm;45901;47.600;9.890;2022-11-18T01:11:14;41.39;40.03;42.65;;
60031;Laerm;45901;47.600;9.890;2022-11-18T01:14:00;41.42;40.13;43.04;;
60031;Laerm;45901;47.600;9.890;2022-11-18T01:16:27;41.50;40.13;43.19;;
60031;Laerm;45901;47.600;9.890;2022-11-18T01:18:56;41.57;39.92;43.68;;
60031;Laerm;45901;47.600;9.890;2022-11-18T01:21:23;41.71;40.13;43.58;;
60031;Laerm;45901;47.600;9.890;2022-11-18T01:23:51;41.91;40.53;44.31;;
60031;Laerm;45901;47.600;9.890;2022-11-18T01:26:18;41.89;40.62;45.01;;
60031;Laerm;45901;47.600;9.890;2022-11-18T01:28:46;42.02;40.53;45.11;;
60031;Laerm;45901;47.600;9.890;2022-11-18T01:31:16;42.30;40.23;46.98;;
60031;Laerm;45901;47.600;9.890;2022-11-18T01:33:45;41.81;40.33;44.73;;
60031;Laerm;45901;47.600;9.890;2022-11-18T01:36:18;41.52;40.03;43.44;;
60031;Laerm;45901;47.600;9.890;2022-11-18T01:38:46;41.55;39.92;44.11;;
60031;Laerm;45901;47.600;9.890;2022-11-18T01:41:14;41.76;40.23;44.73;;
60031;Laerm;45901;47.600;9.890;2022-11-18T01:43:53;41.91;40.23;45.97;;
60031;Laerm;45901;47.600;9.890;2022-11-18T01:46:24;42.91;40.80;47.70;;
60031;Laerm;45901;47.600;9.890;2022-11-18T01:48:54;42.61;40.80;48.36;;
60031;Laerm;45901;47.600;9.890;2022-11-18T01:51:27;42.47;40.63;48.49;;
60031;Laerm;45901;47.600;9.890;2022-11-18T01:53:58;42.52;40.62;47.19;;
60031;Laerm;45901;47.600;9.890;2022-11-18T01:56:42;42.85;40.80;50.86;;
60031;Laerm;45901;47.600;9.890;2022-11-18T01:59:14;42.21;40.43;55.91;;
60031;Laerm;45901;47.600;9.890;2022-11-18T02:01:44;41.77;39.92;46.28;;
60031;Laerm;45901;47.600;9.890;2022-11-18T02:04:13;41.52;39.92;43.54;;
60031;Laerm;45901;47.600;9.890;2022-11-18T02:06:41;41.64;40.13;44.07;;
60031;Laerm;45901;47.600;9.890;2022-11-18T02:09:10;41.73;39.81;44.90;;
60031;Laerm;45901;47.600;9.890;2022-11-18T02:11:38;41.77;40.13;45.45;;
60031;Laerm;45901;47.600;9.890;2022-11-18T02:14:21;41.47;39.81;44.27;;
60031;Laerm;45901;47.600;9.890;2022-11-18T02:17:03;41.34;39.21;43.44;;
60031;Laerm;45901;47.600;9.890;2022-11-18T02:20:18;41.81;39.99;45.20;;
60031;Laerm;45901;47.600;9.890;2022-11-18T02:29:43;43.33;40.89;48.80;;
60031;Laerm;45901;47.600;9.890;2022-11-18T02:32:18;42.73;40.80;47.70;;
60031;Laerm;45901;47.600;9.890;2022-11-18T02:34:51;43.27;40.80;52.15;;
60031;Laerm;45901;47.600;9.890;2022-11-18T02:37:28;44.55;41.61;53.39;;
60031;Laerm;45901;47.600;9.890;2022-11-18T02:40:00;46.11;42.22;51.99;;
60031;Laerm;45901;47.600;9.890;2022-11-18T02:42:30;47.21;42.88;54.15;;
60031;Laerm;45901;47.600;9.890;2022-11-18T02:45:05;46.05;41.89;54.57;;
60031;Laerm;45901;47.600;9.890;2022-11-18T02:47:35;44.01;40.71;51.50;;
60031;Laerm;45901;47.600;9.890;2022-11-18T02:50:07;42.29;40.43;46.57;;
60031;Laerm;45901;47.600;9.890;2022-11-18T02:52:38;42.45;40.33;50.73;;
60031;Laerm;45901;47.600;9.890;2022-11-18T02:55:09;42.72;40.53;52.85;;
60031;Laerm;45901;47.600;9.890;2022-11-18T02:57:39;42.74;40.80;47.93;;
60031;Laerm;45901;47.600;9.890;2022-11-18T03:00:10;42.73;40.89;49.69;;
60031;Laerm;45901;47.600;9.890;2022-11-18T03:02:43;42.14;40.33;45.30;;
60031;Laerm;45901;47.600;9.890;2022-11-18T03:05:18;42.21;39.92;48.37;;
60031;Laerm;45901;47.600;9.890;2022-11-18T03:07:55;42.46;40.54;44.43;;
60031;Laerm;45901;47.600;9.890;2022-11-18T03:10:34;42.58;40.89;44.73;;
60031;Laerm;45901;47.600;9.890;2022-11-18T03:13:15;42.34;39.70;45.83;;
60031;Laerm;45901;47.600;9.890;2022-11-18T03:15:54;42.60;40.89;44.35;;
60031;Laerm;45901;47.600;9.890;2022-11-18T03:18:29;42.61;40.80;44.35;;
60031;Laerm;45901;47.600;9.890;2022-11-18T03:21:05;42.48;39.92;43.85;;
60031;Laerm;45901;47.600;9.890;2022-11-18T03:23:38;41.81;39.58;43.19;;
60031;Laerm;45901;47.600;9.890;2022-11-18T03:26:10;41.74;40.23;43.00;;
60031;Laerm;45901;47.600;9.890;2022-11-18T03:28:42;41.55;39.46;42.76;;
60031;Laerm;45901;47.600;9.890;2022-11-18T03:31:18;41.44;40.03;44.27;;
60031;Laerm;45901;47.600;9.890;2022-11-18T03:33:51;41.34;39.92;42.59;;
60031;Laerm;45901;47.600;9.890;2022-11-18T03:36:23;41.34;39.70;42.59;;
60031;Laerm;45901;47.600;9.890;2022-11-18T03:38:57;41.27;39.58;42.59;;
60031;Laerm;45901;47.600;9.890;2022-11-18T03:41:30;41.23;39.81;43.99;;
60031;Laerm;45901;47.600;9.890;2022-11-18T03:44:06;41.21;39.46;42.65;;
60031;Laerm;45901;47.600;9.890;2022-11-18T03:46:41;41.23;39.70;43.37;;
60031;Laerm;45901;47.600;9.890;2022-11-18T03:49:14;41.29;39.81;42.76;;
60031;Laerm;45901;47.600;9.890;2022-11-18T03:51:47;41.63;39.46;42.88;;
60031;Laerm;45901;47.600;9.890;2022-11-18T03:54:22;41.80;39.92;43.24;;
60031;Laerm;45901;47.600;9.890;2022-11-18T03:56:56;41.95;40.43;44.11;;
60031;Laerm;45901;47.600;9.890;2022-11-18T03:59:31;42.09;40.43;44.94;;
60031;Laerm;45901;47.600;9.890;2022-11-18T04:02:04;42.27;40.03;47.14;;
60031;Laerm;45901;47.600;9.890;2022-11-18T04:04:35;42.18;40.43;43.90;;
60031;Laerm;45901;47.600;9.890;2022-11-18T04:07:07;42.30;40.62;43.77;;
60031;Laerm;45901;47.600;9.890;2022-11-18T04:09:41;42.11;39.92;43.77;;
60031;Laerm;45901;47.600;9.890;2022-11-18T04:12:14;42.23;40.62;43.99;;
60031;Laerm;45901;47.600;9.890;2022-11-18T04:14:44;42.31;40.33;44.87;;
60031;Laerm;45901;47.600;9.890;2022-11-18T04:17:20;42.26;40.62;44.51;;
60031;Laerm;45901;47.600;9.890;2022-11-18T04:19:48;42.18;40.03;48.32;;
60031;Laerm;45901;47.600;9.890;2022-11-18T04:22:16;42.06;40.53;43.58;;
60031;Laerm;45901;47.600;9.890;2022-11-18T04:24:44;42.21;40.43;46.33;;
60031;Laerm;45901;47.600;9.890;2022-11-18T04:27:11;41.98;39.81;43.44;;
60031;Laerm;45901;47.600;9.890;2022-11-18T04:29:39;42.27;40.33;48.58;;
60031;Laerm;45901;47.600;9.890;2022-11-18T04:32:06;41.83;40.03;44.54;;
60031;Laerm;45901;47.600;9.890;2022-11-18T04:34:34;41.71;39.70;43.68;;
60031;Laerm;45901;47.600;9.890;2022-11-18T04:37:02;41.53;39.81;43.72;;
60031;Laerm;45901;47.600;9.890;2022-11-18T04:39:30;41.68;40.13;43.39;;
60031;Laerm;45901;47.600;9.890;2022-11-18T04:41:57;41.74;40.03;43.68;;
60031;Laerm;45901;47.600;9.890;2022-11-18T04:44:26;41.84;40.03;47.96;;
60031;Laerm;45901;47.600;9.890;2022-11-18T04:46:55;41.94;40.03;48.92;;
60031;Laerm;45901;47.600;9.890;2022-11-18T04:49:24;41.78;40.03;57.99;;
60031;Laerm;45901;47.600;9.890;2022-11-18T04:51:54;41.98;40.13;46.07;;
60031;Laerm;45901;47.600;9.890;2022-11-18T04:54:23;41.95;40.13;46.87;;
60031;Laerm;45901;47.600;9.890;2022-11-18T04:56:51;42.38;40.62;48.91;;
60031;Laerm;45901;47.600;9.890;2022-11-18T04:59:21;44.05;41.46;52.83;;
60031;Laerm;45901;47.600;9.890;2022-11-18T05:01:49;42.83;39.46;49.44;;
60031;Laerm;45901;47.600;9.890;2022-11-18T05:04:18;42.72;40.80;47.12;;
60031;Laerm;45901;47.600;9.890;2022-11-18T05:06:46;42.42;40.23;44.69;;
60031;Laerm;45901;47.600;9.890;2022-11-18T05:09:15;42.43;40.62;44.15;;
60031;Laerm;45901;47.600;9.890;2022-11-18T05:11:44;42.34;40.23;43.90;;
60031;Laerm;45901;47.600;9.890;2022-11-18T05:14:29;42.36;40.71;43.94;;
60031;Laerm;45901;47.600;9.890;2022-11-18T05:16:59;42.43;40.23;45.27;;
60031;Laerm;45901;47.600;9.890;2022-11-18T05:19:27;42.42;40.89;46.30;;
60031;Laerm;45901;47.600;9.890;2022-11-18T05:21:55;42.36;40.80;43.72;;
60031;Laerm;45901;47.600;9.890;2022-11-18T05:24:23;42.43;40.79;43.94;;
60031;Laerm;45901;47.600;9.890;2022-11-18T05:26:52;42.45;40.89;43.81;;
60031;Laerm;45901;47.600;9.890;2022-11-18T05:29:20;42.38;40.53;43.86;;
60031;Laerm;45901;47.600;9.890;2022-11-18T05:31:48;42.01;40.13;45.27;;
60031;Laerm;45901;47.600;9.890;2022-11-18T05:34:16;42.18;40.62;46.02;;
60031;Laerm;45901;47.600;9.890;2022-11-18T05:36:45;41.99;40.13;43.39;;
60031;Laerm;45901;47.600;9.890;2022-11-18T05:39:12;41.95;40.62;43.19;;
60031;Laerm;45901;47.600;9.890;2022-11-18T05:41:41;42.08;40.53;47.12;;
60031;Laerm;45901;47.600;9.890;2022-11-18T05:44:25;41.88;40.23;44.23;;
60031;Laerm;45901;47.600;9.890;2022-11-18T05:46:52;42.20;40.62;44.27;;
60031;Laerm;45901;47.600;9.890;2022-11-18T05:49:23;42.03;40.03;44.97;;
60031;Laerm;45901;47.600;9.890;2022-11-18T05:51:50;42.00;40.33;43.49;;
60031;Laerm;45901;47.600;9.890;2022-11-18T05:54:18;42.27;40.23;44.04;;
60031;Laerm;45901;47.600;9.890;2022-11-18T05:56:49;42.12;40.18;44.03;;
60031;Laerm;45901;47.600;9.890;2022-11-18T05:59:16;42.02;40.62;43.49;;
60031;Laerm;45901;47.600;9.890;2022-11-18T06:01:47;42.20;40.43;46.35;;
60031;Laerm;45901;47.600;9.890;2022-11-18T06:04:20;41.93;39.78;45.57;;
60031;Laerm;45901;47.600;9.890;2022-11-18T06:06:53;41.55;39.92;42.88;;
60031;Laerm;45901;47.600;9.890;2022-11-18T06:09:26;41.54;40.03;42.88;;
60031;Laerm;45901;47.600;9.890;2022-11-18T06:11:58;41.67;40.23;43.29;;
60031;Laerm;45901;47.600;9.890;2022-11-18T06:14:32;41.61;39.92;43.81;;
60031;Laerm;45901;47.600;9.890;2022-11-18T06:17:04;41.63;39.92;42.88;;
60031;Laerm;45901;47.600;9.890;2022-11-18T06:19:34;41.67;40.03;44.07;;
60031;Laerm;45901;47.600;9.890;2022-11-18T06:22:02;41.73;40.03;43.39;;
60031;Laerm;45901;47.600;9.890;2022-11-18T06:24:30;41.64;39.81;50.18;;
60031;Laerm;45901;47.600;9.890;2022-11-18T06:26:59;41.25;39.46;44.65;;
60031;Laerm;45901;47.600;9.890;2022-11-18T06:29:27;41.32;39.92;44.47;;
60031;Laerm;45901;47.600;9.890;2022-11-18T06:31:54;41.50;39.92;45.91;;
60031;Laerm;45901;47.600;9.890;2022-11-18T06:34:22;41.40;39.81;46.43;;
60031;Laerm;45901;47.600;9.890;2022-11-18T06:36:49;41.36;39.81;43.14;;
60031;Laerm;45901;47.600;9.890;2022-11-18T06:39:16;41.49;39.92;43.54;;
60031;Laerm;45901;47.600;9.890;2022-11-18T06:41:43;41.59;39.92;43.14;;
60031;Laerm;45901;47.600;9.890;2022-11-18T06:44:12;41.53;39.81;44.72;;
60031;Laerm;45901;47.600;9.890;2022-11-18T06:46:38;41.58;39.92;46.38;;
60031;Laerm;45901;47.600;9.890;2022-11-18T06:49:25;41.47;39.68;53.13;;
60031;Laerm;45901;47.600;9.890;2022-11-18T06:51:53;41.49;39.92;43.63;;
60031;Laerm;45901;47.600;9.890;2022-11-18T06:54:29;41.56;40.03;43.19;;
60031;Laerm;45901;47.600;9.890;2022-11-18T06:56:56;41.73;40.03;45.04;;
60031;Laerm;45901;47.600;9.890;2022-11-18T06:59:25;41.54;39.92;42.76;;
60031;Laerm;45901;47.600;9.890;2022-11-18T07:01:52;41.76;39.92;45.97;;
60031;Laerm;45901;47.600;9.890;2022-11-18T07:04:19;41.62;40.13;43.68;;
60031;Laerm;45901;47.600;9.890;2022-11-18T07:06:47;41.66;40.03;43.44;;
60031;Laerm;45901;47.600;9.890;2022-11-18T07:09:14;41.86;40.23;44.27;;
60031;Laerm;45901;47.600;9.890;2022-11-18T07:11:41;41.78;40.23;43.04;;
60031;Laerm;45901;47.600;9.890;2022-11-18T07:14:09;41.73;39.92;45.07;;
60031;Laerm;45901;47.600;9.890;2022-11-18T07:16:38;41.49;39.81;44.27;;
60031;Laerm;45901;47.600;9.890;2022-11-18T07:19:09;41.72;40.23;43.81;;
60031;Laerm;45901;47.600;9.890;2022-11-18T07:21:36;41.77;40.13;44.94;;
60031;Laerm;45901;47.600;9.890;2022-11-18T07:24:06;41.80;40.33;45.07;;
60031;Laerm;45901;47.600;9.890;2022-11-18T07:26:34;41.86;40.13;44.62;;
60031;Laerm;45901;47.600;9.890;2022-11-18T07:29:02;41.93;40.13;43.72;;
60031;Laerm;45901;47.600;9.890;2022-11-18T07:31:30;42.10;40.33;45.11;;
60031;Laerm;45901;47.600;9.890;2022-11-18T07:33:58;42.54;40.89;46.91;;
60031;Laerm;45901;47.600;9.890;2022-11-18T07:36:27;42.01;40.33;49.19;;
60031;Laerm;45901;47.600;9.890;2022-11-18T07:38:57;41.78;40.23;44.97;;
60031;Laerm;45901;47.600;9.890;2022-11-18T07:41:27;41.84;40.13;46.15;;
60031;Laerm;45901;47.600;9.890;2022-11-18T07:43:57;42.02;40.33;54.08;;
60031;Laerm;45901;47.600;9.890;2022-11-18T07:46:26;42.61;40.80;50.98;;
60031;Laerm;45901;47.600;9.890;2022-11-18T07:48:56;42.76;41.06;47.52;;
60031;Laerm;45901;47.600;9.890;2022-11-18T07:51:28;42.53;40.89;48.91;;
60031;Laerm;45901;47.600;9.890;2022-11-18T07:53:56;42.36;40.43;52.95;;
60031;Laerm;45901;47.600;9.890;2022-11-18T07:56:24;42.15;40.62;48.25;;
60031;Laerm;45901;47.600;9.890;2022-11-18T07:58:52;42.59;40.71;48.99;;
60031;Laerm;45901;47.600;9.890;2022-11-18T08:01:21;42.99;40.71;49.19;;
60031;Laerm;45901;47.600;9.890;2022-11-18T08:03:49;42.31;40.53;46.89;;
60031;Laerm;45901;47.600;9.890;2022-11-18T08:06:18;42.00;40.13;45.39;;
60031;Laerm;45901;47.600;9.890;2022-11-18T08:08:48;41.74;40.13;43.24;;
60031;Laerm;45901;47.600;9.890;2022-11-18T08:11:18;41.80;40.13;44.59;;
60031;Laerm;45901;47.600;9.890;2022-11-18T08:13:47;41.86;40.33;43.81;;
60031;Laerm;45901;47.600;9.890;2022-11-18T08:16:24;41.78;40.13;43.63;;
60031;Laerm;45901;47.600;9.890;2022-11-18T08:18:52;41.61;40.03;45.17;;
60031;Laerm;45901;47.600;9.890;2022-11-18T08:21:21;41.72;40.13;43.77;;
60031;Laerm;45901;47.600;9.890;2022-11-18T08:23:51;42.41;40.13;49.23;;
60031;Laerm;45901;47.600;9.890;2022-11-18T08:26:19;41.97;40.23;45.86;;
60031;Laerm;45901;47.600;9.890;2022-11-18T08:28:47;41.59;40.13;44.83;;
60031;Laerm;45901;47.600;9.890;2022-11-18T08:31:17;41.51;39.92;45.01;;
60031;Laerm;45901;47.600;9.890;2022-11-18T08:33:45;41.73;39.92;52.89;;
60031;Laerm;45901;47.600;9.890;2022-11-18T08:36:16;41.69;40.23;44.80;;
60031;Laerm;45901;47.600;9.890;2022-11-18T08:38:44;41.67;40.03;43.63;;
60031;Laerm;45901;47.600;9.890;2022-11-18T08:41:17;41.76;40.23;43.68;;
60031;Laerm;45901;47.600;9.890;2022-11-18T08:43:45;41.79;40.33;46.73;;
60031;Laerm;45901;47.600;9.890;2022-11-18T08:46:12;41.80;40.33;44.87;;
60031;Laerm;45901;47.600;9.890;2022-11-18T08:48:39;41.71;39.92;44.73;;
60031;Laerm;45901;47.600;9.890;2022-11-18T08:51:09;41.29;39.58;42.98;;
60031;Laerm;45901;47.600;9.890;2022-11-18T08:53:37;41.29;39.58;44.15;;
60031;Laerm;45901;47.600;9.890;2022-11-18T08:56:14;41.25;39.34;43.14;;
60031;Laerm;45901;47.600;9.890;2022-11-18T08:58:44;41.39;39.70;43.86;;
60031;Laerm;45901;47.600;9.890;2022-11-18T09:01:20;41.53;39.70;45.63;;
60031;Laerm;45901;47.600;9.890;2022-11-18T09:03:48;41.41;39.81;45.30;;
60031;Laerm;45901;47.600;9.890;2022-11-18T09:06:22;41.57;39.58;45.30;;
60031;Laerm;45901;47.600;9.890;2022-11-18T09:08:50;41.49;39.99;42.88;;
60031;Laerm;45901;47.600;9.890;2022-11-18T09:11:24;41.55;40.13;43.24;;
60031;Laerm;45901;47.600;9.890;2022-11-18T09:13:53;41.61;39.70;43.72;;
60031;Laerm;45901;47.600;9.890;2022-11-18T09:16:21;41.71;40.13;47.55;;
60031;Laerm;45901;47.600;9.890;2022-11-18T09:18:49;41.80;39.70;44.11;;
60031;Laerm;45901;47.600;9.890;2022-11-18T09:21:18;41.74;40.13;43.19;;
60031;Laerm;45901;47.600;9.890;2022-11-18T09:23:45;42.00;40.18;51.81;;
60031;Laerm;45901;47.600;9.890;2022-11-18T09:26:15;41.59;39.92;49.45;;
60031;Laerm;45901;47.600;9.890;2022-11-18T09:28:44;41.57;40.03;44.03;;
60031;Laerm;45901;47.600;9.890;2022-11-18T09:31:14;41.68;40.13;44.76;;
60031;Laerm;45901;47.600;9.890;2022-11-18T09:33:42;41.59;39.58;45.45;;
60031;Laerm;45901;47.600;9.890;2022-11-18T09:36:13;41.61;40.23;42.98;;
60031;Laerm;45901;47.600;9.890;2022-11-18T09:38:40;41.81;39.81;43.77;;
60031;Laerm;45901;47.600;9.890;2022-11-18T09:41:57;41.80;40.03;44.83;;
60031;Laerm;45901;47.600;9.890;2022-11-18T09:44:47;41.85;40.23;44.73;;
60031;Laerm;45901;47.600;9.890;2022-11-18T09:47:35;41.62;39.81;45.36;;
60031;Laerm;45901;47.600;9.890;2022-11-18T09:50:05;41.71;39.92;43.24;;
60031;Laerm;45901;47.600;9.890;2022-11-18T09:57:24;42.00;40.33;44.39;;
60031;Laerm;45901;47.600;9.890;2022-11-18T10:01:12;42.10;40.33;46.91;;
60031;Laerm;45901;47.600;9.890;2022-11-18T10:03:43;42.18;40.62;46.15;;
60031;Laerm;45901;47.600;9.890;2022-11-18T10:06:25;41.97;40.43;47.61;;
60031;Laerm;45901;47.600;9.890;2022-11-18T10:09:08;42.64;40.53;46.71;;
60031;Laerm;45901;47.600;9.890;2022-11-18T10:11:44;42.24;40.23;48.45;;
60031;Laerm;45901;47.600;9.890;2022-11-18T10:14:27;42.08;40.23;44.65;;
60031;Laerm;45901;47.600;9.890;2022-11-18T10:17:11;42.19;40.33;45.77;;
60031;Laerm;45901;47.600;9.890;2022-11-18T10:19:51;42.19;40.33;51.37;;
60031;Laerm;45901;47.600;9.890;2022-11-18T10:22:25;42.08;40.53;44.56;;
60031;Laerm;45901;47.600;9.890;2022-11-18T10:24:55;42.34;40.80;45.91;;
60031;Laerm;45901;47.600;9.890;2022-11-18T10:27:26;42.17;40.33;48.48;;
60031;Laerm;45901;47.600;9.890;2022-11-18T10:30:13;42.26;40.43;46.57;;
60031;Laerm;45901;47.600;9.890;2022-11-18T10:32:57;42.26;40.33;48.00;;
60031;Laerm;45901;47.600;9.890;2022-11-18T10:35:33;42.29;40.43;44.97;;
60031;Laerm;45901;47.600;9.890;2022-11-18T10:38:15;42.57;40.98;44.94;;
60031;Laerm;45901;47.600;9.890;2022-11-18T10:40:49;42.34;40.23;47.88;;
60031;Laerm;45901;47.600;9.890;2022-11-18T10:43:56;43.25;40.98;54.40;;
60031;Laerm;45901;47.600;9.890;2022-11-18T10:46:28;42.69;40.79;46.69;;
60031;Laerm;45901;47.600;9.890;2022-11-18T10:49:15;42.03;40.18;47.24;;
60031;Laerm;45901;47.600;9.890;2022-11-18T10:51:45;41.75;39.92;44.51;;
60031;Laerm;45901;47.600;9.890;2022-11-18T10:54:18;41.86;40.23;45.07;;
60031;Laerm;45901;47.600;9.890;2022-11-18T10:56:49;41.83;40.13;45.17;;
60031;Laerm;45901;47.600;9.890;2022-11-18T10:59:29;42.15;40.43;52.70;;
60031;Laerm;45901;47.600;9.890;2022-11-18T11:01:59;42.23;40.33;47.02;;
60031;Laerm;45901;47.600;9.890;2022-11-18T11:04:29;42.20;40.33;45.86;;
60031;Laerm;45901;47.600;9.890;2022-11-18T11:06:57;42.19;40.53;45.30;;
60031;Laerm;45901;47.600;9.890;2022-11-18T11:09:27;42.30;40.62;45.86;;
60031;Laerm;45901;47.600;9.890;2022-11-18T11:11:59;42.50;40.80;46.57;;
60031;Laerm;45901;47.600;9.890;2022-11-18T11:14:31;42.10;40.43;45.91;;
60031;Laerm;45901;47.600;9.890;2022-11-18T11:17:08;42.53;40.53;47.24;;
60031;Laerm;45901;47.600;9.890;2022-11-18T11:19:49;42.47;40.23;47.28;;
60031;Laerm;45901;47.600;9.890;2022-11-18T11:22:18;43.18;41.14;49.47;;
60031;Laerm;45901;47.600;9.890;2022-11-18T11:24:45;44.42;41.46;53.61;;
60031;Laerm;45901;47.600;9.890;2022-11-18T11:27:47;43.60;41.22;49.41;;
60031;Laerm;45901;47.600;9.890;2022-11-18T11:30:19;45.42;41.96;51.94;;
60031;Laerm;45901;47.600;9.890;2022-11-18T11:33:13;44.43;41.46;51.60;;
60031;Laerm;45901;47.600;9.890;2022-11-18T11:36:04;43.19;41.14;51.36;;
60031;Laerm;45901;47.600;9.890;2022-11-18T11:38:50;42.81;40.33;47.16;;
60031;Laerm;45901;47.600;9.890;2022-11-18T11:41:22;41.86;40.33;45.23;;
60031;Laerm;45901;47.600;9.890;2022-11-18T11:44:27;42.14;40.71;46.18;;
60031;Laerm;45901;47.600;9.890;2022-11-18T11:47:11;41.98;40.43;46.30;;
60031;Laerm;45901;47.600;9.890;2022-11-18T11:50:01;42.04;40.43;44.03;;
60031;Laerm;45901;47.600;9.890;2022-11-18T11:52:45;41.83;40.13;45.77;;
60031;Laerm;45901;47.600;9.890;2022-11-18T11:55:21;41.97;40.33;45.11;;
60031;Laerm;45901;47.600;9.890;2022-11-18T11:58:10;42.11;40.13;46.15;;
60031;Laerm;45901;47.600;9.890;2022-11-18T12:00:48;42.19;40.62;45.57;;
60031;Laerm;45901;47.600;9.890;2022-11-18T12:03:39;41.88;40.03;50.84;;
60031;Laerm;45901;47.600;9.890;2022-11-18T12:06:09;41.99;40.33;44.56;;
60031;Laerm;45901;47.600;9.890;2022-11-18T12:08:48;41.99;40.23;44.87;;
60031;Laerm;45901;47.600;9.890;2022-11-18T12:11:25;42.89;41.14;47.77;;
60031;Laerm;45901;47.600;9.890;2022-11-18T12:14:00;42.99;40.98;49.29;;
60031;Laerm;45901;47.600;9.890;2022-11-18T12:16:39;42.41;40.53;46.18;;
60031;Laerm;45901;47.600;9.890;2022-11-18T12:19:12;42.52;40.53;46.13;;
60031;Laerm;45901;47.600;9.890;2022-11-18T12:21:58;42.42;40.80;44.69;;
60031;Laerm;45901;47.600;9.890;2022-11-18T12:24:34;42.51;40.71;46.20;;
60031;Laerm;45901;47.600;9.890;2022-11-18T12:27:05;42.38;40.43;44.65;;
60031;Laerm;45901;47.600;9.890;2022-11-18T12:29:53;42.63;41.22;47.24;;
60031;Laerm;45901;47.600;9.890;2022-11-18T12:32:33;42.28;40.33;49.91;;
60031;Laerm;45901;47.600;9.890;2022-11-18T12:35:24;42.51;40.89;46.57;;
60031;Laerm;45901;47.600;9.890;2022-11-18T12:38:01;42.31;39.92;45.48;;
60031;Laerm;45901;47.600;9.890;2022-11-18T12:40:42;42.61;40.71;44.51;;
60031;Laerm;45901;47.600;9.890;2022-11-18T12:46:51;42.81;41.14;45.63;;
60031;Laerm;45901;47.600;9.890;2022-11-18T12:50:12;42.59;39.81;45.04;;
60031;Laerm;45901;47.600;9.890;2022-11-18T12:52:51;42.31;40.53;44.69;;
60031;Laerm;45901;47.600;9.890;2022-11-18T12:55:29;43.90;40.62;51.04;;
60031;Laerm;45901;47.600;9.890;2022-11-18T12:57:59;42.31;40.53;45.04;;
60031;Laerm;45901;47.600;9.890;2022-11-18T13:00:31;42.94;41.14;47.20;;
60031;Laerm;45901;47.600;9.890;2022-11-18T13:03:25;46.19;42.09;54.40;;
60031;Laerm;45901;47.600;9.890;2022-11-18T13:06:11;45.01;41.82;50.57;;
60031;Laerm;45901;47.600;9.890;2022-11-18T13:08:40;45.33;41.75;52.50;;
60031;Laerm;45901;47.600;9.890;2022-11-18T13:11:14;44.48;41.68;50.73;;
60031;Laerm;45901;47.600;9.890;2022-11-18T13:14:01;43.31;40.89;48.19;;
60031;Laerm;45901;47.600;9.890;2022-11-18T13:16:47;43.34;40.98;48.21;;
60031;Laerm;45901;47.600;9.890;2022-11-18T13:19:32;42.86;40.33;47.06;;
60031;Laerm;45901;47.600;9.890;2022-11-18T13:22:00;42.33;40.71;44.94;;
60031;Laerm;45901;47.600;9.890;2022-11-18T13:24:47;42.61;40.80;47.61;;
60031;Laerm;45901;47.600;9.890;2022-11-18T13:27:30;42.30;40.13;45.89;;
60031;Laerm;45901;47.600;9.890;2022-11-18T13:30:07;42.02;40.08;46.23;;
60031;Laerm;45901;47.600;9.890;2022-11-18T13:32:36;41.97;40.13;44.51;;
60031;Laerm;45901;47.600;9.890;2022-11-18T13:35:13;41.65;40.23;45.77;;
60031;Laerm;45901;47.600;9.890;2022-11-18T13:37:50;41.76;40.23;44.87;;
60031;Laerm;45901;47.600;9.890;2022-11-18T13:40:27;41.91;40.43;45.39;;
60031;Laerm;45901;47.600;9.890;2022-11-18T13:42:55;42.02;40.03;49.62;;
60031;Laerm;45901;47.600;9.890;2022-11-18T13:45:26;41.78;39.92;46.20;;
60031;Laerm;45901;47.600;9.890;2022-11-18T13:47:58;42.08;40.53;43.63;;
60031;Laerm;45901;47.600;9.890;2022-11-18T13:50:31;42.22;40.53;43.99;;
60031;Laerm;45901;47.600;9.890;2022-11-18T13:53:12;41.51;39.46;43.39;;
60031;Laerm;45901;47.600;9.890;2022-11-18T13:55:45;41.70;39.92;44.34;;
60031;Laerm;45901;47.600;9.890;2022-11-18T13:58:37;42.01;40.33;45.07;;
60031;Laerm;45901;47.600;9.890;2022-11-18T14:01:16;42.30;39.92;47.10;;
60031;Laerm;45901;47.600;9.890;2022-11-18T14:03:49;41.74;40.03;44.11;;
60031;Laerm;45901;47.600;9.890;2022-11-18T14:06:25;41.75;39.92;43.54;;
60031;Laerm;45901;47.600;9.890;2022-11-18T14:09:05;41.99;39.81;44.15;;
60031;Laerm;45901;47.600;9.890;2022-11-18T14:11:35;41.77;40.03;44.54;;
60031;Laerm;45901;47.600;9.890;2022-11-18T14:14:02;42.14;40.53;43.90;;
60031;Laerm;45901;47.600;9.890;2022-11-18T14:16:34;41.70;39.92;44.47;;
60031;Laerm;45901;47.600;9.890;2022-11-18T14:19:02;41.61;39.81;43.29;;
60031;Laerm;45901;47.600;9.890;2022-11-18T14:21:32;42.30;39.99;45.60;;
60031;Laerm;45901;47.600;9.890;2022-11-18T14:24:00;41.46;39.81;43.19;;
60031;Laerm;45901;47.600;9.890;2022-11-18T14:26:31;41.70;40.13;43.49;;
60031;Laerm;45901;47.600;9.890;2022-11-18T14:29:01;42.22;39.70;44.15;;
60031;Laerm;45901;47.600;9.890;2022-11-18T14:31:33;41.72;40.03;47.12;;
60031;Laerm;45901;47.600;9.890;2022-11-18T14:34:12;41.98;40.03;43.49;;